Time;durP1;ratioP1;P1;durP2;ratioP2;P2;SDS_P1;SDS_P2;PMS_P1;PMS_P2;Temp;Humidity;BMP_temperature;BMP_pressure;BME280_temperature;BME280_humidity;BME280_pressure;Samples;Min_cycle;Max_cycle;Signal;HPM_P1;HPM_P2
2022/08/13 05:55:43;;;;;;;8.53;4.78;;;;;;;26.28;38.43;101201.83;2406729;72;28145;-73
2022/08/13 05:58:46;;;;;;;10.00;4.78;;;;;;;26.29;38.60;101198.58;2325903;75;51519;-73
2022/08/13 06:05:08;;;;;;;8.78;5.17;;;;;;;26.13;39.03;101199.96;2316945;76;22704;-74
2022/08/13 06:08:10;;;;;;;7.75;5.50;;;;;;;26.22;38.92;101204.05;2312730;76;52495;-73
2022/08/13 06:11:16;;;;;;;12.10;4.95;;;;;;;26.21;38.82;101203.75;2336020;76;51420;-73
2022/08/13 06:14:25;;;;;;;7.20;4.92;;;;;;;26.25;38.71;101198.17;2337379;76;50317;-72
2022/08/13 06:17:23;;;;;;;7.47;4.95;;;;;;;26.24;38.89;101210.09;2302496;75;21745;-74
2022/08/13 06:20:25;;;;;;;6.95;4.67;;;;;;;26.30;38.90;101202.94;2336887;76;51181;-73
2022/08/13 06:23:29;;;;;;;9.40;5.17;;;;;;;26.24;38.97;101205.20;2285978;76;51419;-72
2022/08/13 06:26:31;;;;;;;8.28;4.90;;;;;;;26.35;38.84;101201.75;2315009;76;50616;-72
2022/08/13 06:29:36;;;;;;;8.03;4.65;;;;;;;26.42;38.83;101201.17;2335076;76;51312;-72
2022/08/13 06:32:39;;;;;;;6.78;5.05;;;;;;;26.34;39.06;101206.06;2313197;76;49494;-73
2022/08/13 06:35:41;;;;;;;8.13;5.42;;;;;;;26.38;38.98;101209.98;2315245;76;50301;-72
2022/08/13 06:38:48;;;;;;;10.45;5.25;;;;;;;26.36;39.34;101203.44;2335068;75;50577;-73
2022/08/13 06:41:50;;;;;;;7.55;5.22;;;;;;;26.33;39.27;101211.16;2317289;76;50989;-74
2022/08/13 06:44:58;;;;;;;9.43;4.92;;;;;;;26.28;39.41;101219.96;2336529;76;50736;-74
2022/08/13 06:47:57;;;;;;;11.95;4.87;;;;;;;26.28;39.67;101221.31;2333715;75;22385;-74
2022/08/13 06:51:00;;;;;;;9.15;5.00;;;;;;;26.28;39.58;101218.10;2335491;75;50142;-73
2022/08/13 06:54:02;;;;;;;9.68;5.50;;;;;;;26.22;39.68;101217.61;2301098;76;51492;-75
2022/08/13 06:57:04;;;;;;;9.90;5.05;;;;;;;26.15;39.92;101220.06;2300358;76;50788;-74
2022/08/13 07:00:10;;;;;;;7.83;5.28;;;;;;;26.09;39.98;101215.00;2270375;77;50648;-74
2022/08/13 07:03:11;;;;;;;8.60;5.03;;;;;;;26.04;40.27;101218.36;2335752;75;21941;-74
2022/08/13 07:06:24;;;;;;;7.45;4.22;;;;;;;26.15;40.32;101216.85;2310844;76;50696;-74
2022/08/13 07:09:25;;;;;;;7.92;4.70;;;;;;;26.09;40.24;101219.07;2319435;76;22337;-75
2022/08/13 07:12:28;;;;;;;9.83;5.10;;;;;;;26.11;40.43;101221.05;2319051;75;50645;-75
2022/08/13 07:15:31;;;;;;;8.58;4.80;;;;;;;26.05;40.64;101216.51;2303269;76;50302;-76
2022/08/13 07:18:33;;;;;;;9.73;5.20;;;;;;;26.00;40.70;101210.91;2297721;76;51517;-76
2022/08/13 07:21:36;;;;;;;8.45;5.53;;;;;;;26.02;40.54;101211.50;2280876;76;49984;-77
2022/08/13 07:24:39;;;;;;;8.75;5.22;;;;;;;26.09;40.63;101218.24;2330713;76;50591;-75
2022/08/13 07:27:44;;;;;;;6.20;4.92;;;;;;;26.13;40.69;101209.45;2300421;76;51553;-75
2022/08/13 07:30:46;;;;;;;8.73;4.90;;;;;;;26.20;40.56;101214.31;2272224;76;22380;-74
2022/08/13 07:33:49;;;;;;;7.97;4.75;;;;;;;26.17;40.59;101211.19;2279913;78;51541;-74
2022/08/13 07:36:54;;;;;;;8.00;4.95;;;;;;;26.22;40.60;101210.83;2284453;76;51490;-74
2022/08/13 07:39:56;;;;;;;8.70;5.22;;;;;;;26.24;40.74;101211.44;2305226;76;22243;-74
2022/08/13 07:42:59;;;;;;;10.58;5.15;;;;;;;26.37;40.53;101216.47;2310986;76;50205;-73
2022/08/13 07:46:07;;;;;;;7.03;5.00;;;;;;;26.41;40.36;101213.59;2332518;75;52411;-77
2022/08/13 07:49:06;;;;;;;14.07;5.33;;;;;;;26.41;40.25;101213.59;2306834;76;22277;-78
2022/08/13 07:52:09;;;;;;;6.83;4.58;;;;;;;26.43;40.24;101212.86;2318548;76;50575;-77
2022/08/13 07:55:11;;;;;;;11.18;4.97;;;;;;;26.49;40.02;101221.48;2306227;76;49223;-77
2022/08/13 07:58:13;;;;;;;10.23;4.75;;;;;;;26.51;40.00;101213.92;2304910;76;50188;-77
2022/08/13 08:01:15;;;;;;;7.75;4.90;;;;;;;26.55;39.87;101215.19;2318599;76;50656;-76
2022/08/13 08:04:18;;;;;;;7.62;4.85;;;;;;;26.57;39.80;101215.80;2332689;76;51497;-76
2022/08/13 08:07:21;;;;;;;11.83;4.83;;;;;;;26.61;39.75;101212.92;2306552;76;51525;-76
2022/08/13 08:10:23;;;;;;;9.25;4.90;;;;;;;26.62;39.68;101218.67;2306221;76;49564;-76
2022/08/13 08:13:26;;;;;;;7.60;4.92;;;;;;;26.64;39.55;101217.08;2318525;76;51425;-77
2022/08/13 08:16:31;;;;;;;7.60;4.90;;;;;;;26.66;39.47;101220.41;2318353;76;50749;-78
2022/08/13 08:19:34;;;;;;;13.08;4.72;;;;;;;26.66;39.40;101221.23;2306464;76;49708;-77
2022/08/13 08:22:36;;;;;;;9.00;5.28;;;;;;;26.67;39.33;101216.66;2306487;76;51494;-77
2022/08/13 08:25:41;;;;;;;8.10;4.42;;;;;;;26.68;39.32;101213.70;2303268;76;50701;-76
2022/08/13 08:28:43;;;;;;;;;;;;;;;26.68;39.29;101219.13;2282586;77;51168;-76
2022/08/13 08:31:45;;;;;;;8.78;4.90;;;;;;;26.71;39.21;101219.20;2280141;78;50265;-77
2022/08/13 08:34:50;;;;;;;6.40;4.40;;;;;;;26.73;39.18;101223.07;2256289;78;49253;-75
2022/08/13 08:44:40;;;;;;;6.90;4.87;;;;;;;26.78;39.15;101222.70;2280355;78;22357;-77
2022/08/13 08:47:43;;;;;;;8.03;4.92;;;;;;;26.78;39.11;101219.98;2279966;78;50240;-77
2022/08/13 08:50:45;;;;;;;7.28;4.80;;;;;;;26.80;39.02;101218.41;2305097;75;50029;-76
2022/08/13 08:53:47;;;;;;;7.08;5.03;;;;;;;26.81;39.04;101210.02;2271825;76;50298;-77
2022/08/13 08:56:54;;;;;;;6.55;5.10;;;;;;;26.82;39.21;101214.41;2302215;76;49978;-77
2022/08/13 08:59:54;;;;;;;6.72;5.37;;;;;;;26.85;39.12;101207.70;2268309;77;22393;-77
2022/08/13 09:02:57;;;;;;;7.30;4.83;;;;;;;26.86;39.28;101203.92;2270003;77;51423;-78
2022/08/13 09:06:00;;;;;;;11.70;4.95;;;;;;;26.88;39.38;101193.67;2292719;76;50211;-76
2022/08/13 09:09:06;;;;;;;10.63;5.65;;;;;;;26.89;39.32;101195.32;2272207;77;51024;-77
2022/08/13 09:12:12;;;;;;;8.40;5.53;;;;;;;26.88;39.26;101190.42;2296861;77;22686;-76
2022/08/13 09:15:14;;;;;;;9.03;5.33;;;;;;;26.89;39.37;101193.96;2270177;77;22164;-76
2022/08/13 09:18:21;;;;;;;11.08;5.22;;;;;;;26.91;39.40;101198.65;2269550;77;50968;-77
2022/08/13 09:21:25;;;;;;;9.13;5.53;;;;;;;26.93;39.54;101199.26;2291635;77;50181;-78
2022/08/13 09:24:28;;;;;;;9.28;5.37;;;;;;;26.96;39.44;101196.08;2285536;76;50436;-78
2022/08/13 09:27:31;;;;;;;10.05;5.53;;;;;;;26.96;39.83;101199.33;2285574;76;51435;-77
2022/08/13 09:30:33;;;;;;;7.95;5.55;;;;;;;26.96;39.95;101193.37;2269609;76;50633;-78
2022/08/13 09:33:38;;;;;;;9.93;4.97;;;;;;;26.97;40.13;101194.19;2244715;76;50835;-77
2022/08/13 09:36:39;;;;;;;7.85;5.12;;;;;;;26.98;40.13;101199.95;2327307;75;22497;-78
2022/08/13 09:39:55;;;;;;;7.62;5.47;;;;;;;26.98;40.23;101197.23;2294205;76;50655;-77
2022/08/13 09:43:03;;;;;;;11.25;5.42;;;;;;;26.98;40.39;101197.23;2269083;76;51101;-76
2022/08/13 09:46:07;;;;;;;9.53;5.78;;;;;;;26.98;40.44;101201.30;2326848;76;50238;-75
2022/08/13 09:49:11;;;;;;;7.62;5.30;;;;;;;27.00;40.40;101199.17;2327077;76;50243;-75
2022/08/13 09:52:13;;;;;;;9.45;5.40;;;;;;;26.99;40.60;101190.73;2294574;76;50620;-76
2022/08/13 09:55:15;;;;;;;16.73;5.95;;;;;;;26.98;40.60;101197.23;2292167;76;51466;-77
2022/08/13 09:58:18;;;;;;;17.82;5.95;;;;;;;27.00;40.71;101186.44;2284546;77;52453;-77
2022/08/13 10:01:20;;;;;;;12.53;5.47;;;;;;;27.01;40.67;101185.38;2292654;76;50739;-76
2022/08/13 10:04:22;;;;;;;11.70;5.60;;;;;;;27.04;40.54;101187.62;2348542;75;50560;-76
2022/08/13 10:07:24;;;;;;;15.58;5.50;;;;;;;27.04;40.53;101182.73;2285884;76;52501;-76
2022/08/13 10:10:27;;;;;;;13.62;5.87;;;;;;;27.08;40.33;101179.87;2266448;77;51622;-76
2022/08/13 10:13:29;;;;;;;9.33;5.90;;;;;;;27.10;40.29;101184.02;2266491;77;50613;-76
2022/08/13 10:16:31;;;;;;;12.18;5.58;;;;;;;27.10;40.23;101184.02;2265010;77;51462;-74
2022/08/13 10:19:33;;;;;;;13.00;5.53;;;;;;;27.10;40.13;101177.23;2266511;77;51445;-75
2022/08/13 10:22:35;;;;;;;10.05;5.60;;;;;;;27.11;40.10;101182.95;2238819;77;49748;-75
2022/08/13 10:25:38;;;;;;;7.58;5.58;;;;;;;27.12;40.05;101179.17;2309720;75;50272;-75
2022/08/13 10:28:40;;;;;;;7.60;5.58;;;;;;;27.13;40.04;101186.28;2321170;76;49412;-75
2022/08/13 10:31:42;;;;;;;11.08;5.80;;;;;;;27.12;40.02;101184.60;2320404;75;50292;-75
2022/08/13 10:34:44;;;;;;;10.03;5.50;;;;;;;27.14;40.00;101185.75;2321517;76;50655;-76
2022/08/13 10:37:53;;;;;;;8.20;5.60;;;;;;;27.16;40.01;101180.92;2341210;76;50558;-76
2022/08/13 10:40:52;;;;;;;13.35;5.70;;;;;;;27.14;40.04;101176.23;2321725;76;22426;-76
2022/08/13 10:43:59;;;;;;;9.13;5.70;;;;;;;27.17;40.09;101181.20;2341795;75;50774;-76
2022/08/13 10:47:01;;;;;;;6.95;5.47;;;;;;;27.15;40.10;101187.39;2341892;75;22320;-75
2022/08/13 10:50:04;;;;;;;8.58;5.90;;;;;;;27.17;40.07;101183.10;2320695;76;50358;-76
2022/08/13 10:53:06;;;;;;;11.97;6.05;;;;;;;27.15;40.08;101177.38;2304692;77;50581;-74
2022/08/13 10:56:09;;;;;;;15.53;5.87;;;;;;;27.15;40.06;101173.30;2275703;76;50796;-75
2022/08/13 10:59:11;;;;;;;9.85;5.85;;;;;;;27.16;40.08;101176.84;2336295;75;51444;-74
2022/08/13 11:02:14;;;;;;;15.13;5.72;;;;;;;27.16;40.06;101179.56;2304327;76;50625;-73
2022/08/13 11:05:20;;;;;;;10.58;5.72;;;;;;;27.17;40.19;101175.78;2277135;77;51544;-73
2022/08/13 11:08:21;;;;;;;12.95;6.03;;;;;;;27.18;40.20;101167.12;2298608;76;22387;-76
2022/08/13 11:11:24;;;;;;;12.33;6.00;;;;;;;27.13;40.49;101164.55;2267821;77;51027;-75
2022/08/13 11:14:29;;;;;;;12.10;5.92;;;;;;;27.14;40.67;101168.09;2305206;76;50350;-75
2022/08/13 11:17:31;;;;;;;14.98;6.25;;;;;;;27.14;40.75;101170.27;2306182;76;51392;-76
2022/08/13 11:20:50;;;;;;;18.62;6.40;;;;;;;27.16;41.09;101168.70;2254981;76;50025;-76
2022/08/13 11:23:38;;;;;;;18.27;6.28;;;;;;;27.16;41.28;101165.98;2303566;76;23255;-76
2022/08/13 11:26:40;;;;;;;27.87;7.28;;;;;;;27.15;41.42;101172.45;2295914;76;50802;-74
2022/08/13 11:29:42;;;;;;;30.08;6.92;;;;;;;27.11;42.76;101166.66;2338433;76;50305;-75
2022/08/13 11:32:44;;;;;;;21.87;7.22;;;;;;;27.14;42.51;101167.55;2337952;76;50414;-76
2022/08/13 11:35:46;;;;;;;27.55;7.15;;;;;;;27.18;42.92;101160.33;2280706;76;50876;-77
2022/08/13 11:38:49;;;;;;;21.10;6.28;;;;;;;27.18;43.07;101157.11;2306137;76;50096;-78
2022/08/13 11:41:51;;;;;;;19.80;6.92;;;;;;;27.19;42.90;101153.32;2334666;74;50268;-75
2022/08/13 11:44:53;;;;;;;23.73;6.75;;;;;;;27.24;42.89;101160.26;2289849;77;49597;-74
2022/08/13 11:47:55;;;;;;;17.02;6.75;;;;;;;27.21;43.09;101167.52;2296474;76;50633;-74
2022/08/13 11:50:58;;;;;;;18.82;6.90;;;;;;;27.24;42.98;101167.05;2300752;76;51442;-72
2022/08/13 11:54:00;;;;;;;19.98;6.75;;;;;;;27.25;43.38;101155.65;2304927;76;50588;-71
2022/08/13 11:57:03;;;;;;;14.55;6.90;;;;;;;27.27;43.27;101165.23;2303017;76;51568;-72
2022/08/13 12:00:07;;;;;;;14.63;6.20;;;;;;;27.24;43.48;101164.34;2302491;76;51298;-73
2022/08/13 12:03:10;;;;;;;14.90;6.47;;;;;;;27.27;43.92;101162.52;2303903;76;51508;-73
2022/08/13 12:06:12;;;;;;;15.35;6.42;;;;;;;27.27;43.85;101160.33;2339409;76;50354;-73
2022/08/13 12:09:16;;;;;;;16.42;6.22;;;;;;;27.28;44.26;101158.75;2295119;76;52561;-70
2022/08/13 12:12:18;;;;;;;16.20;5.92;;;;;;;27.31;44.77;101157.47;2342091;76;50231;-74
2022/08/13 12:15:20;;;;;;;15.15;5.90;;;;;;;27.30;44.68;101150.36;2322014;76;50121;-73
2022/08/13 12:18:22;;;;;;;11.28;6.78;;;;;;;27.30;45.04;101147.64;2321944;76;50645;-71
2022/08/13 12:21:26;;;;;;;15.05;6.03;;;;;;;27.30;45.36;101142.20;2318790;76;51478;-72
2022/08/13 12:24:29;;;;;;;11.20;6.15;;;;;;;27.28;45.36;101137.02;2315564;76;50238;-73
2022/08/13 12:27:31;;;;;;;20.48;6.60;;;;;;;27.29;45.82;101141.38;2329803;76;51435;-71
2022/08/13 12:30:33;;;;;;;11.95;5.87;;;;;;;27.30;45.74;101129.98;2283843;76;52470;-71
2022/08/13 12:33:37;;;;;;;10.60;5.65;;;;;;;27.29;46.15;101126.97;2246700;77;51724;-71
2022/08/13 12:36:39;;;;;;;16.52;5.90;;;;;;;27.30;45.92;101127.26;2283608;77;50595;-71
2022/08/13 12:39:42;;;;;;;16.77;6.90;;;;;;;27.30;46.36;101125.90;2302857;77;51453;-75
2022/08/13 12:42:44;;;;;;;6.72;5.60;;;;;;;27.31;46.22;101120.25;2313806;75;51528;-76
2022/08/13 12:45:46;;;;;;;7.60;5.55;;;;;;;27.01;45.67;101113.94;2333514;75;50325;-76
2022/08/13 12:48:48;;;;;;;9.88;5.45;;;;;;;27.15;44.94;101121.69;2271330;77;49266;-75
2022/08/13 12:51:51;;;;;;;9.43;5.92;;;;;;;27.03;45.17;101110.47;2297183;76;51495;-76
2022/08/13 12:54:53;;;;;;;18.80;6.35;;;;;;;26.95;45.35;101104.81;2315955;76;50188;-75
2022/08/13 12:57:55;;;;;;;9.43;5.22;;;;;;;27.03;45.44;101112.64;2269214;76;51241;-75
2022/08/13 13:00:58;;;;;;;6.35;5.47;;;;;;;26.83;45.57;101107.45;2333383;76;50309;-76
2022/08/13 13:04:00;;;;;;;14.00;8.60;;;;;;;26.93;45.05;101098.78;2333360;75;51396;-75
2022/08/13 13:07:02;;;;;;;9.45;6.20;;;;;;;26.98;44.92;101094.84;2309586;76;51549;-75
2022/08/13 13:10:05;;;;;;;11.33;5.90;;;;;;;26.86;45.10;101096.12;2297449;76;51514;-75
2022/08/13 13:13:07;;;;;;;9.88;5.33;;;;;;;26.84;45.24;101087.38;2258369;76;50017;-76
2022/08/13 13:16:09;;;;;;;5.70;4.55;;;;;;;26.81;45.63;101081.58;2311172;76;51535;-75
2022/08/13 13:19:12;;;;;;;11.88;4.90;;;;;;;26.67;45.38;101079.03;2311183;76;53652;-76
2022/08/13 13:22:14;;;;;;;5.55;4.45;;;;;;;26.79;45.33;101075.55;2311110;76;50095;-76
2022/08/13 13:25:16;;;;;;;6.75;4.85;;;;;;;26.87;45.06;101076.59;2328159;75;51384;-75
2022/08/13 13:28:23;;;;;;;8.20;4.80;;;;;;;26.80;45.07;101084.02;2331128;76;51480;-76
2022/08/13 13:31:25;;;;;;;6.97;3.87;;;;;;;26.89;44.82;101070.41;2311306;76;51481;-76
2022/08/13 13:34:27;;;;;;;4.90;3.90;;;;;;;26.78;44.77;101072.01;2311250;76;50551;-77
2022/08/13 13:37:32;;;;;;;7.47;4.20;;;;;;;26.73;44.22;101064.25;2311079;76;51101;-76
2022/08/13 13:40:37;;;;;;;4.35;3.87;;;;;;;26.82;43.93;101062.87;2311579;76;49866;-77
2022/08/13 13:43:39;;;;;;;5.42;3.80;;;;;;;26.86;43.67;101062.72;2310866;76;22446;-76
2022/08/13 13:46:42;;;;;;;10.18;6.35;;;;;;;26.92;43.42;101059.08;2310855;76;51253;-76
2022/08/13 13:49:44;;;;;;;6.65;4.37;;;;;;;26.99;43.12;101058.47;2333115;76;50383;-76
2022/08/13 13:52:46;;;;;;;9.98;5.20;;;;;;;27.01;43.07;101063.16;2309717;76;50146;-77
2022/08/13 13:55:48;;;;;;;8.70;4.87;;;;;;;26.92;43.35;101053.65;2298699;76;50644;-76
2022/08/13 13:58:52;;;;;;;6.10;4.47;;;;;;;26.94;43.36;101056.97;2287457;76;51305;-76
2022/08/13 14:01:54;;;;;;;4.92;4.50;;;;;;;26.97;43.35;101054.33;2275026;76;50372;-75
2022/08/13 14:04:57;;;;;;;8.90;4.58;;;;;;;26.96;43.95;101054.86;2282312;76;51464;-77
2022/08/13 14:08:00;;;;;;;6.90;4.70;;;;;;;27.02;43.87;101048.50;2249649;78;51531;-76
2022/08/13 14:11:03;;;;;;;10.55;4.60;;;;;;;27.04;43.75;101042.31;2274410;78;50770;-75
2022/08/13 14:14:05;;;;;;;9.28;5.20;;;;;;;27.00;43.87;101038.42;2282363;78;50073;-76
2022/08/13 14:17:08;;;;;;;7.95;4.92;;;;;;;27.04;43.95;101040.95;2289025;76;50716;-76
2022/08/13 14:20:11;;;;;;;8.43;4.97;;;;;;;27.05;44.23;101033.63;2337721;75;50077;-77
2022/08/13 14:23:14;;;;;;;6.08;4.90;;;;;;;27.07;44.39;101022.02;2333299;76;50701;-78
2022/08/13 14:26:16;;;;;;;6.72;4.87;;;;;;;27.08;44.54;101022.33;2298471;76;52387;-77
2022/08/13 14:29:18;;;;;;;9.28;4.58;;;;;;;27.09;44.78;101019.91;2271580;77;51304;-78
2022/08/13 14:32:22;;;;;;;10.25;4.87;;;;;;;27.11;44.84;101019.97;2294681;76;50283;-76
2022/08/13 14:35:25;;;;;;;8.45;5.00;;;;;;;27.14;45.10;101011.35;2258237;77;49875;-78
2022/08/13 14:38:27;;;;;;;7.70;4.62;;;;;;;27.19;45.46;101012.59;2293631;76;51362;-77
2022/08/13 14:41:29;;;;;;;10.08;5.05;;;;;;;27.21;45.38;101012.66;2297195;77;51439;-76
2022/08/13 14:44:32;;;;;;;10.05;4.60;;;;;;;27.20;45.04;101008.80;2293968;76;51428;-78
2022/08/13 14:47:34;;;;;;;7.20;5.58;;;;;;;27.23;45.67;101006.97;2298064;77;50330;-78
2022/08/13 14:50:37;;;;;;;6.35;5.15;;;;;;;27.27;45.51;101009.00;2321831;76;50612;-76
2022/08/13 14:53:39;;;;;;;9.95;4.83;;;;;;;27.29;45.42;100994.66;2261833;76;51005;-78
2022/08/13 14:56:42;;;;;;;6.83;5.75;;;;;;;27.29;45.63;101006.87;2322369;75;50253;-76
2022/08/13 14:59:44;;;;;;;7.85;5.67;;;;;;;27.55;43.94;100995.28;2301190;77;50563;-76
2022/08/13 15:02:46;;;;;;;8.30;6.28;;;;;;;27.55;42.92;100996.64;2302265;77;51488;-76
2022/08/13 15:05:50;;;;;;;10.32;6.25;;;;;;;27.61;42.68;100989.44;2302233;77;51505;-77
2022/08/13 15:08:52;;;;;;;6.87;6.10;;;;;;;27.63;42.57;100980.52;2282750;77;50978;-76
2022/08/13 15:11:55;;;;;;;8.15;5.72;;;;;;;27.69;42.38;100983.10;2283028;77;50272;-77
2022/08/13 15:15:00;;;;;;;9.73;6.15;;;;;;;27.69;42.17;100976.84;2302882;76;50409;-76
2022/08/13 15:18:03;;;;;;;10.10;6.00;;;;;;;27.58;42.71;100973.06;2321466;76;49527;-77
2022/08/13 15:21:05;;;;;;;10.00;6.33;;;;;;;27.69;42.59;100979.02;2321973;76;50374;-76
2022/08/13 15:24:07;;;;;;;13.40;6.03;;;;;;;27.73;42.39;100980.22;2311646;76;51336;-77
2022/08/13 15:27:11;;;;;;;10.88;6.05;;;;;;;27.72;42.31;100968.21;2318129;76;50339;-77
2022/08/13 15:30:21;;;;;;;7.05;6.35;;;;;;;27.81;42.29;100966.83;2302687;77;22282;-77
2022/08/13 15:33:24;;;;;;;13.20;6.58;;;;;;;27.58;42.26;100960.30;2259416;77;51012;-76
2022/08/13 15:36:26;;;;;;;8.85;5.92;;;;;;;27.50;42.35;100955.21;2283004;77;51463;-77
2022/08/13 15:39:29;;;;;;;8.85;5.92;;;;;;;27.51;42.29;100956.88;2302359;77;51474;-76
2022/08/13 15:42:31;;;;;;;8.85;6.03;;;;;;;27.42;42.34;100947.95;2283083;77;50960;-76
2022/08/13 15:45:34;;;;;;;6.65;5.92;;;;;;;27.39;42.37;100942.99;2283110;77;50254;-77
2022/08/13 15:48:36;;;;;;;8.23;6.28;;;;;;;27.52;42.41;100945.48;2302185;77;50368;-77
2022/08/13 15:51:39;;;;;;;7.12;6.42;;;;;;;27.52;42.46;100940.86;2283136;77;50322;-76
2022/08/13 15:54:48;;;;;;;9.95;6.47;;;;;;;27.47;42.45;100928.52;2301791;76;51649;-78
2022/08/13 15:57:50;;;;;;;9.58;6.72;;;;;;;27.51;42.47;100924.27;2252216;77;51072;-78
2022/08/13 16:00:52;;;;;;;7.85;6.35;;;;;;;27.55;42.36;100932.23;2280078;76;50546;-78
2022/08/13 16:03:55;;;;;;;11.25;6.58;;;;;;;27.52;42.56;100928.63;2309583;76;49966;-77
2022/08/13 16:06:59;;;;;;;7.97;6.42;;;;;;;27.53;42.45;100935.70;2306079;76;51034;-76
2022/08/13 16:10:02;;;;;;;7.90;6.43;;;;;;;27.51;42.43;100928.34;2332299;76;50243;-77
2022/08/13 16:13:06;;;;;;;10.85;6.97;;;;;;;27.55;42.50;100928.16;2318568;76;50677;-77
2022/08/13 16:16:08;;;;;;;7.45;6.62;;;;;;;27.57;42.34;100926.03;2306269;76;50464;-76
2022/08/13 16:19:10;;;;;;;10.45;7.40;;;;;;;27.65;42.38;100924.84;2318619;76;50759;-76
2022/08/13 16:22:15;;;;;;;8.50;7.12;;;;;;;27.62;42.36;100926.69;2279377;76;52405;-76
2022/08/13 16:25:19;;;;;;;8.30;7.12;;;;;;;27.59;42.42;100920.34;2312540;76;50251;-76
2022/08/13 16:28:21;;;;;;;12.47;7.62;;;;;;;27.68;42.47;100919.47;2316499;76;50353;-77
2022/08/13 16:31:23;;;;;;;12.78;7.78;;;;;;;27.64;42.39;100918.27;2291988;76;49896;-76
2022/08/13 16:34:25;;;;;;;10.85;7.65;;;;;;;27.75;42.37;100909.30;2316695;76;50643;-76
2022/08/13 16:37:30;;;;;;;11.03;7.92;;;;;;;27.67;42.47;100906.92;2316953;76;51628;-76
2022/08/13 16:40:34;;;;;;;15.40;8.63;;;;;;;27.61;42.49;100903.27;2305353;76;22247;-76
2022/08/13 16:43:36;;;;;;;10.53;7.62;;;;;;;27.66;42.33;100911.53;2271381;77;50373;-76
2022/08/13 16:46:38;;;;;;;16.42;9.43;;;;;;;27.68;42.47;100889.02;2254838;78;49419;-76
2022/08/13 16:49:42;;;;;;;14.83;9.30;;;;;;;27.66;42.48;100888.97;2274900;78;50226;-77
2022/08/13 16:52:44;;;;;;;16.82;11.40;;;;;;;27.62;42.37;100895.93;2274860;77;51539;-77
2022/08/13 16:55:47;;;;;;;15.40;10.00;;;;;;;27.73;42.32;100894.58;2310577;76;50382;-76
2022/08/13 16:58:53;;;;;;;16.05;10.03;;;;;;;27.69;42.68;100884.41;2291867;76;50001;-76
2022/08/13 17:01:57;;;;;;;13.85;9.93;;;;;;;27.60;42.93;100894.00;2305404;75;22456;-76
2022/08/13 17:11:38;;;;;;;17.50;10.28;;;;;;;27.54;43.35;100881.66;2342185;76;22274;-76
2022/08/13 17:14:40;;;;;;;17.90;13.68;;;;;;;27.62;43.24;100876.90;2341297;76;51622;-75
2022/08/13 17:17:42;;;;;;;13.88;11.15;;;;;;;27.61;43.25;100876.63;2328295;75;50336;-75
2022/08/13 17:20:45;;;;;;;12.47;10.63;;;;;;;27.60;43.20;100875.80;2294540;76;52667;-76
2022/08/13 17:23:48;;;;;;;14.13;10.38;;;;;;;27.63;43.20;100873.95;2334355;75;51421;-74
2022/08/13 17:26:50;;;;;;;12.80;10.50;;;;;;;27.61;43.38;100872.00;2302178;76;51539;-75
2022/08/13 17:29:52;;;;;;;13.65;9.80;;;;;;;27.60;43.33;100868.19;2253158;77;51408;-74
2022/08/13 17:32:55;;;;;;;15.35;9.80;;;;;;;27.60;43.39;100869.55;2294564;77;50101;-74
2022/08/13 17:35:58;;;;;;;13.70;8.98;;;;;;;27.55;43.49;100866.99;2262112;77;50092;-74
2022/08/13 17:39:00;;;;;;;12.15;9.40;;;;;;;27.57;43.42;100865.41;2289263;77;50200;-75
2022/08/13 17:42:04;;;;;;;13.48;9.40;;;;;;;27.56;43.44;100867.27;2332256;75;50310;-75
2022/08/13 17:45:06;;;;;;;14.93;8.55;;;;;;;27.53;43.55;100871.83;2292039;76;51015;-74
2022/08/13 17:48:09;;;;;;;8.83;7.85;;;;;;;27.52;43.45;100867.47;2321263;76;50323;-74
2022/08/13 17:51:11;;;;;;;11.88;7.60;;;;;;;27.51;43.46;100871.27;2305733;76;52234;-75
2022/08/13 17:54:14;;;;;;;11.10;8.13;;;;;;;27.46;43.71;100873.02;2300428;77;51424;-77
2022/08/13 17:57:16;;;;;;;12.60;7.70;;;;;;;27.55;43.63;100871.07;2279315;77;50110;-76
2022/08/13 18:00:18;;;;;;;10.28;8.30;;;;;;;27.54;43.65;100870.79;2249517;77;49475;-76
2022/08/13 18:03:21;;;;;;;14.25;8.68;;;;;;;27.60;43.64;100866.83;2289102;77;50675;-77
2022/08/13 18:06:23;;;;;;;17.07;8.38;;;;;;;27.58;43.94;100868.41;2267753;77;50695;-77
2022/08/13 18:09:25;;;;;;;15.05;8.70;;;;;;;27.53;43.99;100872.38;2267989;77;50183;-76
2022/08/13 18:12:28;;;;;;;18.77;8.25;;;;;;;27.57;44.21;100877.10;2298129;76;51676;-76
2022/08/13 18:15:30;;;;;;;14.75;8.63;;;;;;;27.58;44.06;100882.82;2306660;76;51468;-77
2022/08/13 18:18:32;;;;;;;11.12;7.75;;;;;;;27.60;43.95;100883.13;2302851;76;50772;-76
2022/08/13 18:21:34;;;;;;;11.10;8.15;;;;;;;27.55;43.92;100884.66;2279261;76;53378;-77
2022/08/13 18:24:37;;;;;;;11.68;8.18;;;;;;;27.55;43.87;100886.02;2314968;76;51097;-76
2022/08/13 18:27:39;;;;;;;11.60;8.03;;;;;;;27.53;43.87;100893.58;2306021;76;51368;-76
2022/08/13 18:30:41;;;;;;;14.30;8.68;;;;;;;27.52;43.89;100899.27;2304910;76;50792;-76
2022/08/13 18:33:44;;;;;;;10.43;8.40;;;;;;;27.58;43.98;100895.05;2306084;76;50911;-76
2022/08/13 18:36:46;;;;;;;15.65;8.40;;;;;;;27.52;44.02;100894.66;2305917;76;51472;-76
2022/08/13 18:39:48;;;;;;;13.20;8.80;;;;;;;27.51;44.01;100899.80;2304950;76;50640;-77
2022/08/13 18:42:51;;;;;;;15.72;8.70;;;;;;;27.44;44.47;100893.66;2338104;76;50323;-77
2022/08/13 18:45:54;;;;;;;16.73;9.10;;;;;;;27.38;45.19;100894.58;2304835;76;50251;-77
2022/08/13 18:48:56;;;;;;;15.05;9.20;;;;;;;27.39;45.10;100898.98;2292176;76;50044;-76
2022/08/13 18:51:58;;;;;;;16.65;9.28;;;;;;;27.43;44.76;100906.93;2330241;76;51496;-76
2022/08/13 18:55:00;;;;;;;19.77;10.70;;;;;;;27.48;44.63;100899.44;2330189;76;51477;-76
2022/08/13 18:58:02;;;;;;;15.32;10.82;;;;;;;27.51;44.61;100901.16;2307846;76;53607;-76
2022/08/13 19:01:05;;;;;;;20.02;11.08;;;;;;;27.53;44.59;100894.94;2323244;75;50335;-75
2022/08/13 19:04:07;;;;;;;17.67;11.45;;;;;;;27.49;44.47;100894.31;2306699;76;51504;-76
2022/08/13 19:07:09;;;;;;;17.85;10.65;;;;;;;27.48;44.99;100892.10;2305390;75;51390;-75
2022/08/13 19:10:17;;;;;;;21.15;11.38;;;;;;;27.47;45.34;100897.80;2321631;76;50347;-77
2022/08/13 19:13:20;;;;;;;16.00;10.38;;;;;;;27.47;45.28;100901.87;2245143;78;49616;-79
2022/08/13 19:16:24;;;;;;;22.87;11.08;;;;;;;27.45;45.48;100904.81;2275962;77;50646;-75
2022/08/13 19:19:27;;;;;;;15.00;9.98;;;;;;;27.45;44.69;100908.06;2304393;76;24484;-77
